Decoded Metar for LEAG (Algeciras in SPAIN) (IATA:N/A) | Meteo·Mobile Aviation Weather
aviador You're here:

LEAG Decoded Metar

Algeciras in SPAIN
Report Time2018-10-22 23:00:00
UTC Time2018-10-22 23:08:29
Flight Rules vfr VFR
Wind070° at 07 kt
W.Rank070° ranks 1
Current wind is below 070° avg. (9.6)
Visibility9999 m
Phenomena:N/A
Clouds:Few 018 Hf
Expected CloudBase > 800 ft AGL from Temp-Dew spread
CeilingNone
Temp20°C
Dew Point18°C (88% RH)
QNH1022 hPa
Raw Report
METAR LEAG 222300Z AUTO 07007KT 9999 FEW018 20/18 Q1022=

Extra information for LEAG:More info

Metar Taf Metar & Taf Last 4 Metars F.Rules Stats Wind Profile Meteogram Temp Stats Airport Information Weather charts Add Link Nearby VenuesMetar ALERT Operation Metar Decoded Social comments